sensor_id;sensor_type;location;lat;lon;timestamp;P1;durP1;ratioP1;P2;durP2;ratioP2
773;SDS011;370;48.810;9.150;2023-03-01T00:02:16;1.65;;;1.50;;
773;SDS011;370;48.810;9.150;2023-03-01T00:04:42;1.00;;;0.90;;
773;SDS011;370;48.810;9.150;2023-03-01T00:07:09;7.55;;;2.33;;
773;SDS011;370;48.810;9.150;2023-03-01T00:09:36;8.02;;;2.58;;
773;SDS011;370;48.810;9.150;2023-03-01T00:12:03;1.73;;;1.48;;
773;SDS011;370;48.810;9.150;2023-03-01T00:14:31;9.13;;;2.15;;
773;SDS011;370;48.810;9.150;2023-03-01T00:17:00;2.40;;;1.65;;
773;SDS011;370;48.810;9.150;2023-03-01T00:19:27;5.28;;;2.88;;
773;SDS011;370;48.810;9.150;2023-03-01T00:21:53;10.50;;;3.00;;
773;SDS011;370;48.810;9.150;2023-03-01T00:24:20;9.05;;;4.65;;
773;SDS011;370;48.810;9.150;2023-03-01T00:26:47;6.20;;;1.27;;
773;SDS011;370;48.810;9.150;2023-03-01T00:29:14;5.13;;;3.00;;
773;SDS011;370;48.810;9.150;2023-03-01T00:31:41;7.03;;;2.38;;
773;SDS011;370;48.810;9.150;2023-03-01T00:34:09;2.33;;;1.05;;
773;SDS011;370;48.810;9.150;2023-03-01T00:36:36;1.73;;;1.63;;
773;SDS011;370;48.810;9.150;2023-03-01T00:39:04;4.00;;;2.30;;
773;SDS011;370;48.810;9.150;2023-03-01T00:41:33;3.67;;;2.63;;
773;SDS011;370;48.810;9.150;2023-03-01T00:44:00;3.72;;;1.40;;
773;SDS011;370;48.810;9.150;2023-03-01T00:46:27;6.13;;;1.67;;
773;SDS011;370;48.810;9.150;2023-03-01T00:48:55;7.47;;;3.88;;
773;SDS011;370;48.810;9.150;2023-03-01T00:51:24;13.38;;;2.92;;
773;SDS011;370;48.810;9.150;2023-03-01T00:53:53;3.40;;;2.92;;
773;SDS011;370;48.810;9.150;2023-03-01T00:56:21;4.00;;;2.25;;
773;SDS011;370;48.810;9.150;2023-03-01T00:58:48;8.35;;;3.45;;
773;SDS011;370;48.810;9.150;2023-03-01T01:01:17;6.35;;;3.00;;
773;SDS011;370;48.810;9.150;2023-03-01T01:03:46;5.82;;;2.22;;
773;SDS011;370;48.810;9.150;2023-03-01T01:06:14;1.85;;;1.38;;
773;SDS011;370;48.810;9.150;2023-03-01T01:08:44;3.92;;;1.90;;
773;SDS011;370;48.810;9.150;2023-03-01T01:11:10;8.65;;;2.33;;
773;SDS011;370;48.810;9.150;2023-03-01T01:13:38;9.98;;;2.50;;
773;SDS011;370;48.810;9.150;2023-03-01T01:16:05;5.10;;;2.55;;
773;SDS011;370;48.810;9.150;2023-03-01T01:18:33;8.27;;;3.47;;
773;SDS011;370;48.810;9.150;2023-03-01T01:21:03;1.50;;;1.42;;
773;SDS011;370;48.810;9.150;2023-03-01T01:23:31;1.50;;;0.95;;
773;SDS011;370;48.810;9.150;2023-03-01T01:25:59;2.22;;;1.70;;
773;SDS011;370;48.810;9.150;2023-03-01T01:28:30;3.55;;;1.30;;
773;SDS011;370;48.810;9.150;2023-03-01T01:30:57;3.55;;;1.90;;
773;SDS011;370;48.810;9.150;2023-03-01T01:33:23;8.77;;;1.90;;
773;SDS011;370;48.810;9.150;2023-03-01T01:35:50;6.60;;;2.67;;
773;SDS011;370;48.810;9.150;2023-03-01T01:38:17;2.45;;;1.85;;
773;SDS011;370;48.810;9.150;2023-03-01T01:40:43;4.78;;;2.05;;
773;SDS011;370;48.810;9.150;2023-03-01T01:43:14;1.00;;;0.90;;
773;SDS011;370;48.810;9.150;2023-03-01T01:45:45;3.85;;;2.50;;
773;SDS011;370;48.810;9.150;2023-03-01T01:48:12;10.05;;;2.42;;
773;SDS011;370;48.810;9.150;2023-03-01T01:50:42;4.90;;;2.25;;
773;SDS011;370;48.810;9.150;2023-03-01T01:53:10;3.60;;;2.40;;
773;SDS011;370;48.810;9.150;2023-03-01T01:55:43;4.25;;;2.13;;
773;SDS011;370;48.810;9.150;2023-03-01T01:58:15;4.30;;;1.67;;
773;SDS011;370;48.810;9.150;2023-03-01T02:00:45;0.68;;;0.60;;
773;SDS011;370;48.810;9.150;2023-03-01T02:03:13;1.90;;;1.60;;
773;SDS011;370;48.810;9.150;2023-03-01T02:05:44;1.83;;;1.65;;
773;SDS011;370;48.810;9.150;2023-03-01T02:08:17;14.48;;;2.30;;
773;SDS011;370;48.810;9.150;2023-03-01T02:10:45;2.72;;;1.35;;
773;SDS011;370;48.810;9.150;2023-03-01T02:13:15;5.65;;;2.80;;
773;SDS011;370;48.810;9.150;2023-03-01T02:15:42;9.95;;;3.42;;
773;SDS011;370;48.810;9.150;2023-03-01T02:18:10;6.22;;;2.00;;
773;SDS011;370;48.810;9.150;2023-03-01T02:20:39;7.93;;;2.40;;
773;SDS011;370;48.810;9.150;2023-03-01T02:23:16;2.58;;;1.98;;
773;SDS011;370;48.810;9.150;2023-03-01T02:25:46;9.77;;;3.90;;
773;SDS011;370;48.810;9.150;2023-03-01T02:28:22;4.00;;;1.48;;
773;SDS011;370;48.810;9.150;2023-03-01T02:30:51;4.03;;;1.92;;
773;SDS011;370;48.810;9.150;2023-03-01T02:33:37;2.70;;;1.48;;
773;SDS011;370;48.810;9.150;2023-03-01T02:36:06;5.35;;;1.92;;
773;SDS011;370;48.810;9.150;2023-03-01T02:38:36;7.82;;;2.72;;
773;SDS011;370;48.810;9.150;2023-03-01T02:41:03;5.45;;;2.97;;
773;SDS011;370;48.810;9.150;2023-03-01T02:43:34;2.30;;;2.08;;
773;SDS011;370;48.810;9.150;2023-03-01T02:46:02;4.25;;;2.17;;
773;SDS011;370;48.810;9.150;2023-03-01T02:48:38;5.47;;;3.45;;
773;SDS011;370;48.810;9.150;2023-03-01T02:51:09;4.93;;;1.67;;
773;SDS011;370;48.810;9.150;2023-03-01T02:53:45;5.35;;;1.92;;
773;SDS011;370;48.810;9.150;2023-03-01T02:56:21;3.92;;;2.50;;
773;SDS011;370;48.810;9.150;2023-03-01T02:58:49;3.85;;;1.48;;
773;SDS011;370;48.810;9.150;2023-03-01T03:01:16;17.05;;;4.50;;
773;SDS011;370;48.810;9.150;2023-03-01T03:03:43;5.47;;;2.13;;
773;SDS011;370;48.810;9.150;2023-03-01T03:06:10;6.45;;;2.53;;
773;SDS011;370;48.810;9.150;2023-03-01T03:08:36;6.78;;;3.03;;
773;SDS011;370;48.810;9.150;2023-03-01T03:11:03;5.75;;;2.88;;
773;SDS011;370;48.810;9.150;2023-03-01T03:13:30;5.78;;;2.67;;
773;SDS011;370;48.810;9.150;2023-03-01T03:15:58;8.30;;;3.35;;
773;SDS011;370;48.810;9.150;2023-03-01T03:18:25;3.85;;;2.58;;
773;SDS011;370;48.810;9.150;2023-03-01T03:20:52;5.43;;;2.28;;
773;SDS011;370;48.810;9.150;2023-03-01T03:23:19;9.82;;;5.65;;
773;SDS011;370;48.810;9.150;2023-03-01T03:25:48;8.70;;;3.75;;
773;SDS011;370;48.810;9.150;2023-03-01T03:28:15;6.43;;;2.28;;
773;SDS011;370;48.810;9.150;2023-03-01T03:30:42;4.25;;;3.25;;
773;SDS011;370;48.810;9.150;2023-03-01T03:33:11;4.38;;;2.75;;
773;SDS011;370;48.810;9.150;2023-03-01T03:35:40;7.07;;;1.95;;
773;SDS011;370;48.810;9.150;2023-03-01T03:38:09;8.25;;;3.25;;
773;SDS011;370;48.810;9.150;2023-03-01T03:40:42;8.90;;;3.05;;
773;SDS011;370;48.810;9.150;2023-03-01T03:43:12;7.28;;;3.17;;
773;SDS011;370;48.810;9.150;2023-03-01T03:45:40;4.82;;;2.53;;
773;SDS011;370;48.810;9.150;2023-03-01T03:48:07;7.93;;;3.30;;
773;SDS011;370;48.810;9.150;2023-03-01T03:50:37;9.00;;;2.15;;
773;SDS011;370;48.810;9.150;2023-03-01T03:53:05;4.60;;;3.33;;
773;SDS011;370;48.810;9.150;2023-03-01T03:55:33;4.35;;;2.70;;
773;SDS011;370;48.810;9.150;2023-03-01T03:58:04;6.60;;;3.15;;
773;SDS011;370;48.810;9.150;2023-03-01T04:00:32;9.70;;;2.50;;
773;SDS011;370;48.810;9.150;2023-03-01T04:02:59;4.72;;;1.73;;
773;SDS011;370;48.810;9.150;2023-03-01T04:05:26;7.03;;;3.22;;
773;SDS011;370;48.810;9.150;2023-03-01T04:07:55;5.97;;;3.40;;
773;SDS011;370;48.810;9.150;2023-03-01T04:10:33;2.88;;;1.90;;
773;SDS011;370;48.810;9.150;2023-03-01T04:13:02;13.82;;;3.30;;
773;SDS011;370;48.810;9.150;2023-03-01T04:15:29;11.05;;;3.65;;
773;SDS011;370;48.810;9.150;2023-03-01T04:17:58;3.78;;;2.65;;
773;SDS011;370;48.810;9.150;2023-03-01T04:20:26;10.60;;;3.42;;
773;SDS011;370;48.810;9.150;2023-03-01T04:22:58;15.07;;;4.05;;
773;SDS011;370;48.810;9.150;2023-03-01T04:25:35;3.10;;;2.10;;
773;SDS011;370;48.810;9.150;2023-03-01T04:28:03;10.07;;;3.67;;
773;SDS011;370;48.810;9.150;2023-03-01T04:30:30;8.52;;;2.00;;
773;SDS011;370;48.810;9.150;2023-03-01T04:33:00;10.73;;;2.92;;
773;SDS011;370;48.810;9.150;2023-03-01T04:35:27;8.68;;;3.42;;
773;SDS011;370;48.810;9.150;2023-03-01T04:37:54;27.67;;;4.47;;
773;SDS011;370;48.810;9.150;2023-03-01T04:40:22;5.75;;;3.38;;
773;SDS011;370;48.810;9.150;2023-03-01T04:42:49;8.77;;;2.90;;
773;SDS011;370;48.810;9.150;2023-03-01T04:45:16;7.70;;;3.78;;
773;SDS011;370;48.810;9.150;2023-03-01T04:47:43;6.82;;;2.95;;
773;SDS011;370;48.810;9.150;2023-03-01T04:50:12;15.10;;;4.95;;
773;SDS011;370;48.810;9.150;2023-03-01T04:52:41;7.10;;;3.25;;
773;SDS011;370;48.810;9.150;2023-03-01T04:55:08;8.75;;;4.53;;
773;SDS011;370;48.810;9.150;2023-03-01T04:57:37;7.32;;;3.80;;
773;SDS011;370;48.810;9.150;2023-03-01T05:00:04;8.52;;;4.35;;
773;SDS011;370;48.810;9.150;2023-03-01T05:02:45;3.65;;;3.05;;
773;SDS011;370;48.810;9.150;2023-03-01T05:05:13;9.05;;;4.07;;
773;SDS011;370;48.810;9.150;2023-03-01T05:07:40;5.70;;;3.10;;
773;SDS011;370;48.810;9.150;2023-03-01T05:10:07;7.18;;;2.75;;
773;SDS011;370;48.810;9.150;2023-03-01T05:12:34;12.00;;;3.25;;
773;SDS011;370;48.810;9.150;2023-03-01T05:15:03;10.15;;;2.90;;
773;SDS011;370;48.810;9.150;2023-03-01T05:17:32;13.25;;;2.80;;
773;SDS011;370;48.810;9.150;2023-03-01T05:19:58;4.70;;;3.58;;
773;SDS011;370;48.810;9.150;2023-03-01T05:22:26;18.83;;;4.10;;
773;SDS011;370;48.810;9.150;2023-03-01T05:24:52;20.05;;;3.72;;
773;SDS011;370;48.810;9.150;2023-03-01T05:27:20;11.23;;;4.63;;
773;SDS011;370;48.810;9.150;2023-03-01T05:29:48;6.88;;;3.75;;
773;SDS011;370;48.810;9.150;2023-03-01T05:32:15;9.15;;;3.03;;
773;SDS011;370;48.810;9.150;2023-03-01T05:34:42;7.97;;;3.13;;
773;SDS011;370;48.810;9.150;2023-03-01T05:37:11;8.48;;;3.20;;
773;SDS011;370;48.810;9.150;2023-03-01T05:39:38;5.82;;;3.58;;
773;SDS011;370;48.810;9.150;2023-03-01T05:42:09;12.65;;;5.32;;
773;SDS011;370;48.810;9.150;2023-03-01T05:44:37;4.95;;;1.90;;
773;SDS011;370;48.810;9.150;2023-03-01T05:47:05;9.43;;;3.90;;
773;SDS011;370;48.810;9.150;2023-03-01T05:49:32;7.50;;;3.13;;
773;SDS011;370;48.810;9.150;2023-03-01T05:51:59;9.98;;;2.95;;
773;SDS011;370;48.810;9.150;2023-03-01T05:54:26;6.10;;;2.97;;
773;SDS011;370;48.810;9.150;2023-03-01T05:56:53;13.00;;;5.18;;
773;SDS011;370;48.810;9.150;2023-03-01T05:59:19;7.85;;;4.22;;
773;SDS011;370;48.810;9.150;2023-03-01T06:01:46;4.65;;;2.30;;
773;SDS011;370;48.810;9.150;2023-03-01T06:04:14;5.15;;;3.40;;
773;SDS011;370;48.810;9.150;2023-03-01T06:06:41;12.20;;;5.22;;
773;SDS011;370;48.810;9.150;2023-03-01T06:09:07;6.70;;;3.65;;
773;SDS011;370;48.810;9.150;2023-03-01T06:11:35;9.02;;;3.60;;
773;SDS011;370;48.810;9.150;2023-03-01T06:14:02;15.10;;;4.18;;
773;SDS011;370;48.810;9.150;2023-03-01T06:16:29;10.00;;;3.17;;
773;SDS011;370;48.810;9.150;2023-03-01T06:18:55;6.60;;;3.00;;
773;SDS011;370;48.810;9.150;2023-03-01T06:21:23;12.50;;;5.28;;
773;SDS011;370;48.810;9.150;2023-03-01T06:23:50;6.75;;;2.63;;
773;SDS011;370;48.810;9.150;2023-03-01T06:26:17;11.55;;;3.55;;
773;SDS011;370;48.810;9.150;2023-03-01T06:28:43;9.43;;;3.90;;
773;SDS011;370;48.810;9.150;2023-03-01T06:31:12;10.25;;;3.97;;
773;SDS011;370;48.810;9.150;2023-03-01T06:33:39;9.70;;;3.25;;
773;SDS011;370;48.810;9.150;2023-03-01T06:36:06;10.48;;;3.80;;
773;SDS011;370;48.810;9.150;2023-03-01T06:38:36;8.43;;;4.50;;
773;SDS011;370;48.810;9.150;2023-03-01T06:41:03;7.78;;;3.35;;
773;SDS011;370;48.810;9.150;2023-03-01T06:43:30;10.15;;;3.35;;
773;SDS011;370;48.810;9.150;2023-03-01T06:45:57;13.75;;;3.30;;
773;SDS011;370;48.810;9.150;2023-03-01T06:48:23;13.85;;;4.45;;
773;SDS011;370;48.810;9.150;2023-03-01T06:50:50;7.47;;;3.50;;
773;SDS011;370;48.810;9.150;2023-03-01T06:53:17;18.88;;;5.40;;
773;SDS011;370;48.810;9.150;2023-03-01T06:55:45;14.88;;;5.25;;
773;SDS011;370;48.810;9.150;2023-03-01T06:58:11;6.50;;;3.00;;
773;SDS011;370;48.810;9.150;2023-03-01T07:00:38;5.85;;;2.97;;
773;SDS011;370;48.810;9.150;2023-03-01T07:03:05;10.93;;;4.55;;
773;SDS011;370;48.810;9.150;2023-03-01T07:05:32;22.40;;;5.53;;
773;SDS011;370;48.810;9.150;2023-03-01T07:07:59;12.63;;;4.55;;
773;SDS011;370;48.810;9.150;2023-03-01T07:10:26;26.33;;;5.43;;
773;SDS011;370;48.810;9.150;2023-03-01T07:12:55;10.10;;;5.15;;
773;SDS011;370;48.810;9.150;2023-03-01T07:15:22;12.48;;;5.38;;
773;SDS011;370;48.810;9.150;2023-03-01T07:17:49;9.55;;;4.40;;
773;SDS011;370;48.810;9.150;2023-03-01T07:20:16;6.32;;;3.60;;
773;SDS011;370;48.810;9.150;2023-03-01T07:22:43;15.32;;;5.50;;
773;SDS011;370;48.810;9.150;2023-03-01T07:25:10;11.18;;;5.57;;
773;SDS011;370;48.810;9.150;2023-03-01T07:27:37;10.15;;;4.63;;
773;SDS011;370;48.810;9.150;2023-03-01T07:30:06;18.05;;;5.75;;
773;SDS011;370;48.810;9.150;2023-03-01T07:32:33;8.50;;;4.85;;
773;SDS011;370;48.810;9.150;2023-03-01T07:35:00;14.52;;;5.55;;
773;SDS011;370;48.810;9.150;2023-03-01T07:37:27;19.88;;;7.00;;
773;SDS011;370;48.810;9.150;2023-03-01T07:39:53;15.75;;;5.63;;
773;SDS011;370;48.810;9.150;2023-03-01T07:42:20;16.52;;;6.88;;
773;SDS011;370;48.810;9.150;2023-03-01T07:44:47;23.60;;;8.48;;
773;SDS011;370;48.810;9.150;2023-03-01T07:47:15;13.68;;;5.85;;
773;SDS011;370;48.810;9.150;2023-03-01T07:49:41;18.58;;;6.45;;
773;SDS011;370;48.810;9.150;2023-03-01T07:52:09;16.65;;;7.68;;
773;SDS011;370;48.810;9.150;2023-03-01T07:54:36;16.60;;;7.13;;
773;SDS011;370;48.810;9.150;2023-03-01T07:57:03;17.95;;;7.47;;
773;SDS011;370;48.810;9.150;2023-03-01T07:59:30;26.55;;;8.23;;
773;SDS011;370;48.810;9.150;2023-03-01T08:01:57;13.75;;;6.20;;
773;SDS011;370;48.810;9.150;2023-03-01T08:04:25;15.45;;;6.93;;
773;SDS011;370;48.810;9.150;2023-03-01T08:06:52;19.00;;;6.97;;
773;SDS011;370;48.810;9.150;2023-03-01T08:09:19;17.20;;;7.10;;
773;SDS011;370;48.810;9.150;2023-03-01T08:11:46;14.35;;;6.45;;
773;SDS011;370;48.810;9.150;2023-03-01T08:14:13;13.27;;;6.95;;
773;SDS011;370;48.810;9.150;2023-03-01T08:16:40;22.13;;;8.52;;
773;SDS011;370;48.810;9.150;2023-03-01T08:19:07;17.40;;;6.93;;
773;SDS011;370;48.810;9.150;2023-03-01T08:21:37;17.80;;;7.63;;
773;SDS011;370;48.810;9.150;2023-03-01T08:24:04;16.58;;;7.40;;
773;SDS011;370;48.810;9.150;2023-03-01T08:26:32;20.23;;;7.75;;
773;SDS011;370;48.810;9.150;2023-03-01T08:28:59;22.83;;;8.27;;
773;SDS011;370;48.810;9.150;2023-03-01T08:31:27;16.70;;;7.68;;
773;SDS011;370;48.810;9.150;2023-03-01T08:33:56;22.40;;;9.43;;
773;SDS011;370;48.810;9.150;2023-03-01T08:36:25;22.70;;;8.77;;
773;SDS011;370;48.810;9.150;2023-03-01T08:38:54;17.80;;;7.10;;
773;SDS011;370;48.810;9.150;2023-03-01T08:41:21;29.57;;;8.83;;
773;SDS011;370;48.810;9.150;2023-03-01T08:43:49;19.80;;;8.10;;
773;SDS011;370;48.810;9.150;2023-03-01T08:46:15;25.03;;;8.60;;
773;SDS011;370;48.810;9.150;2023-03-01T08:48:42;22.87;;;9.50;;
773;SDS011;370;48.810;9.150;2023-03-01T08:51:10;29.43;;;9.80;;
773;SDS011;370;48.810;9.150;2023-03-01T08:53:38;18.63;;;8.77;;
773;SDS011;370;48.810;9.150;2023-03-01T08:56:06;19.23;;;9.77;;
773;SDS011;370;48.810;9.150;2023-03-01T08:58:33;22.27;;;9.37;;
773;SDS011;370;48.810;9.150;2023-03-01T09:01:00;21.43;;;9.60;;
773;SDS011;370;48.810;9.150;2023-03-01T09:03:32;18.57;;;8.73;;
773;SDS011;370;48.810;9.150;2023-03-01T09:05:59;21.73;;;9.00;;
773;SDS011;370;48.810;9.150;2023-03-01T09:08:27;22.40;;;9.50;;
773;SDS011;370;48.810;9.150;2023-03-01T09:10:53;23.03;;;9.47;;
773;SDS011;370;48.810;9.150;2023-03-01T09:13:22;22.27;;;9.60;;
773;SDS011;370;48.810;9.150;2023-03-01T09:15:49;22.70;;;10.20;;
773;SDS011;370;48.810;9.150;2023-03-01T09:18:16;23.97;;;9.73;;
773;SDS011;370;48.810;9.150;2023-03-01T09:20:43;19.80;;;9.60;;
773;SDS011;370;48.810;9.150;2023-03-01T09:23:10;16.20;;;8.47;;
773;SDS011;370;48.810;9.150;2023-03-01T09:25:37;25.07;;;9.90;;
773;SDS011;370;48.810;9.150;2023-03-01T09:28:03;18.53;;;9.70;;
773;SDS011;370;48.810;9.150;2023-03-01T09:30:32;22.87;;;9.60;;
773;SDS011;370;48.810;9.150;2023-03-01T09:32:58;19.90;;;10.10;;
773;SDS011;370;48.810;9.150;2023-03-01T09:35:25;18.77;;;9.60;;
773;SDS011;370;48.810;9.150;2023-03-01T09:37:53;21.50;;;8.67;;
773;SDS011;370;48.810;9.150;2023-03-01T09:40:20;23.00;;;10.03;;
773;SDS011;370;48.810;9.150;2023-03-01T09:42:51;17.40;;;9.93;;
773;SDS011;370;48.810;9.150;2023-03-01T09:45:26;22.53;;;10.67;;
773;SDS011;370;48.810;9.150;2023-03-01T09:47:58;19.63;;;10.20;;
773;SDS011;370;48.810;9.150;2023-03-01T09:50:26;19.53;;;8.40;;
773;SDS011;370;48.810;9.150;2023-03-01T09:52:59;17.33;;;9.20;;
773;SDS011;370;48.810;9.150;2023-03-01T09:55:29;20.00;;;9.90;;
773;SDS011;370;48.810;9.150;2023-03-01T09:58:25;23.47;;;10.90;;
773;SDS011;370;48.810;9.150;2023-03-01T10:00:57;22.00;;;9.87;;
773;SDS011;370;48.810;9.150;2023-03-01T10:03:31;17.53;;;10.77;;
773;SDS011;370;48.810;9.150;2023-03-01T10:06:04;17.60;;;9.33;;
773;SDS011;370;48.810;9.150;2023-03-01T10:08:38;18.60;;;9.70;;
773;SDS011;370;48.810;9.150;2023-03-01T10:11:16;23.70;;;11.47;;
773;SDS011;370;48.810;9.150;2023-03-01T10:13:47;18.70;;;10.17;;
773;SDS011;370;48.810;9.150;2023-03-01T10:16:21;24.83;;;11.00;;
773;SDS011;370;48.810;9.150;2023-03-01T10:18:55;18.63;;;10.97;;
773;SDS011;370;48.810;9.150;2023-03-01T10:21:25;19.23;;;10.57;;
773;SDS011;370;48.810;9.150;2023-03-01T10:24:05;19.60;;;10.40;;
773;SDS011;370;48.810;9.150;2023-03-01T10:26:40;20.60;;;10.87;;
773;SDS011;370;48.810;9.150;2023-03-01T10:29:12;22.40;;;10.90;;
773;SDS011;370;48.810;9.150;2023-03-01T10:31:41;31.70;;;11.53;;
773;SDS011;370;48.810;9.150;2023-03-01T10:34:12;20.03;;;11.10;;
773;SDS011;370;48.810;9.150;2023-03-01T10:36:41;19.57;;;10.87;;
773;SDS011;370;48.810;9.150;2023-03-01T10:39:11;19.60;;;10.43;;
773;SDS011;370;48.810;9.150;2023-03-01T10:41:49;17.40;;;10.00;;
773;SDS011;370;48.810;9.150;2023-03-01T10:44:37;19.80;;;10.37;;
773;SDS011;370;48.810;9.150;2023-03-01T10:47:13;20.10;;;10.60;;
773;SDS011;370;48.810;9.150;2023-03-01T10:49:53;23.17;;;11.27;;
773;SDS011;370;48.810;9.150;2023-03-01T10:52:27;19.30;;;10.80;;
773;SDS011;370;48.810;9.150;2023-03-01T10:54:57;26.77;;;10.83;;
773;SDS011;370;48.810;9.150;2023-03-01T10:57:29;16.57;;;9.97;;
773;SDS011;370;48.810;9.150;2023-03-01T11:00:14;19.53;;;9.97;;
773;SDS011;370;48.810;9.150;2023-03-01T11:02:48;26.70;;;10.73;;
773;SDS011;370;48.810;9.150;2023-03-01T11:05:18;19.03;;;11.10;;
773;SDS011;370;48.810;9.150;2023-03-01T11:07:49;20.93;;;11.30;;
773;SDS011;370;48.810;9.150;2023-03-01T11:10:22;20.90;;;11.27;;
773;SDS011;370;48.810;9.150;2023-03-01T11:12:50;18.53;;;9.60;;
773;SDS011;370;48.810;9.150;2023-03-01T11:15:25;17.27;;;10.27;;
773;SDS011;370;48.810;9.150;2023-03-01T11:17:54;20.90;;;10.77;;
773;SDS011;370;48.810;9.150;2023-03-01T11:20:25;20.90;;;11.17;;
773;SDS011;370;48.810;9.150;2023-03-01T11:22:56;18.17;;;10.97;;
773;SDS011;370;48.810;9.150;2023-03-01T11:25:26;19.60;;;10.67;;
773;SDS011;370;48.810;9.150;2023-03-01T11:27:55;20.13;;;9.93;;
773;SDS011;370;48.810;9.150;2023-03-01T11:30:26;18.60;;;9.97;;
773;SDS011;370;48.810;9.150;2023-03-01T11:33:03;17.57;;;9.53;;
773;SDS011;370;48.810;9.150;2023-03-01T11:35:42;25.00;;;10.73;;
773;SDS011;370;48.810;9.150;2023-03-01T11:38:16;15.60;;;9.07;;
773;SDS011;370;48.810;9.150;2023-03-01T11:40:47;21.60;;;9.33;;
773;SDS011;370;48.810;9.150;2023-03-01T11:43:20;16.97;;;9.27;;
773;SDS011;370;48.810;9.150;2023-03-01T11:49:01;36.67;;;10.53;;
773;SDS011;370;48.810;9.150;2023-03-01T11:51:48;21.43;;;9.67;;
773;SDS011;370;48.810;9.150;2023-03-01T11:54:26;18.03;;;9.20;;
773;SDS011;370;48.810;9.150;2023-03-01T11:57:00;14.70;;;9.50;;
773;SDS011;370;48.810;9.150;2023-03-01T11:59:39;18.93;;;9.27;;
773;SDS011;370;48.810;9.150;2023-03-01T12:05:46;15.23;;;9.40;;
773;SDS011;370;48.810;9.150;2023-03-01T12:08:45;17.60;;;8.70;;
773;SDS011;370;48.810;9.150;2023-03-01T12:11:22;15.03;;;8.90;;
773;SDS011;370;48.810;9.150;2023-03-01T12:14:10;24.00;;;9.33;;
773;SDS011;370;48.810;9.150;2023-03-01T12:16:59;16.27;;;8.73;;
773;SDS011;370;48.810;9.150;2023-03-01T12:19:41;15.67;;;8.87;;
773;SDS011;370;48.810;9.150;2023-03-01T12:22:31;15.77;;;8.47;;
773;SDS011;370;48.810;9.150;2023-03-01T12:28:04;16.10;;;9.13;;
773;SDS011;370;48.810;9.150;2023-03-01T12:30:56;17.70;;;9.30;;
773;SDS011;370;48.810;9.150;2023-03-01T12:33:36;15.80;;;8.93;;
773;SDS011;370;48.810;9.150;2023-03-01T12:39:15;19.73;;;8.20;;
773;SDS011;370;48.810;9.150;2023-03-01T12:42:05;18.17;;;9.67;;
773;SDS011;370;48.810;9.150;2023-03-01T12:44:47;17.87;;;9.60;;
773;SDS011;370;48.810;9.150;2023-03-01T12:47:36;20.30;;;9.10;;
773;SDS011;370;48.810;9.150;2023-03-01T12:53:40;15.03;;;8.40;;
773;SDS011;370;48.810;9.150;2023-03-01T12:56:10;15.73;;;8.13;;
773;SDS011;370;48.810;9.150;2023-03-01T12:58:41;13.90;;;8.10;;
773;SDS011;370;48.810;9.150;2023-03-01T13:01:20;18.13;;;8.77;;
773;SDS011;370;48.810;9.150;2023-03-01T13:03:57;15.60;;;8.47;;
773;SDS011;370;48.810;9.150;2023-03-01T13:06:44;18.67;;;9.40;;
773;SDS011;370;48.810;9.150;2023-03-01T13:09:22;15.53;;;7.60;;
773;SDS011;370;48.810;9.150;2023-03-01T13:11:55;19.40;;;8.67;;
773;SDS011;370;48.810;9.150;2023-03-01T13:14:37;15.70;;;7.70;;
773;SDS011;370;48.810;9.150;2023-03-01T13:17:29;18.40;;;6.80;;
773;SDS011;370;48.810;9.150;2023-03-01T13:20:11;17.70;;;8.37;;
773;SDS011;370;48.810;9.150;2023-03-01T13:22:40;17.20;;;6.82;;
773;SDS011;370;48.810;9.150;2023-03-01T13:25:12;15.77;;;7.85;;
773;SDS011;370;48.810;9.150;2023-03-01T13:27:41;19.25;;;7.35;;
773;SDS011;370;48.810;9.150;2023-03-01T13:36:09;15.38;;;5.32;;
773;SDS011;370;48.810;9.150;2023-03-01T13:38:45;12.40;;;6.30;;
773;SDS011;370;48.810;9.150;2023-03-01T13:41:14;17.15;;;6.53;;
773;SDS011;370;48.810;9.150;2023-03-01T13:43:42;15.00;;;5.90;;
773;SDS011;370;48.810;9.150;2023-03-01T13:46:11;13.55;;;6.45;;
773;SDS011;370;48.810;9.150;2023-03-01T13:48:47;17.02;;;6.47;;
773;SDS011;370;48.810;9.150;2023-03-01T13:51:20;22.98;;;7.88;;
773;SDS011;370;48.810;9.150;2023-03-01T13:53:50;18.58;;;6.10;;
773;SDS011;370;48.810;9.150;2023-03-01T13:56:18;23.65;;;7.55;;
773;SDS011;370;48.810;9.150;2023-03-01T13:58:50;13.27;;;4.88;;
773;SDS011;370;48.810;9.150;2023-03-01T14:01:25;15.80;;;6.25;;
773;SDS011;370;48.810;9.150;2023-03-01T14:03:55;18.52;;;5.78;;
773;SDS011;370;48.810;9.150;2023-03-01T14:06:22;27.77;;;7.10;;
773;SDS011;370;48.810;9.150;2023-03-01T14:12:16;15.85;;;5.70;;
773;SDS011;370;48.810;9.150;2023-03-01T14:20:39;22.38;;;7.95;;
773;SDS011;370;48.810;9.150;2023-03-01T14:23:09;17.85;;;6.53;;
773;SDS011;370;48.810;9.150;2023-03-01T14:25:39;13.07;;;5.28;;
773;SDS011;370;48.810;9.150;2023-03-01T14:28:14;15.48;;;6.13;;
773;SDS011;370;48.810;9.150;2023-03-01T14:30:44;20.95;;;7.60;;
773;SDS011;370;48.810;9.150;2023-03-01T14:33:18;18.35;;;7.32;;
773;SDS011;370;48.810;9.150;2023-03-01T14:35:58;17.00;;;5.88;;
773;SDS011;370;48.810;9.150;2023-03-01T14:38:33;12.75;;;6.05;;
773;SDS011;370;48.810;9.150;2023-03-01T14:41:02;16.08;;;6.43;;
773;SDS011;370;48.810;9.150;2023-03-01T14:43:31;21.05;;;6.68;;
773;SDS011;370;48.810;9.150;2023-03-01T14:45:58;16.58;;;7.40;;
773;SDS011;370;48.810;9.150;2023-03-01T14:48:26;15.93;;;6.63;;
773;SDS011;370;48.810;9.150;2023-03-01T14:50:54;18.50;;;6.10;;
773;SDS011;370;48.810;9.150;2023-03-01T14:53:24;21.58;;;7.40;;
773;SDS011;370;48.810;9.150;2023-03-01T14:55:54;12.93;;;6.35;;
773;SDS011;370;48.810;9.150;2023-03-01T14:58:24;27.85;;;8.00;;
773;SDS011;370;48.810;9.150;2023-03-01T15:00:54;20.48;;;6.90;;
773;SDS011;370;48.810;9.150;2023-03-01T15:03:24;14.45;;;5.40;;
773;SDS011;370;48.810;9.150;2023-03-01T15:05:56;12.02;;;5.22;;
773;SDS011;370;48.810;9.150;2023-03-01T15:08:24;20.83;;;7.20;;
773;SDS011;370;48.810;9.150;2023-03-01T15:10:59;13.15;;;5.95;;
773;SDS011;370;48.810;9.150;2023-03-01T15:13:29;18.08;;;6.72;;
773;SDS011;370;48.810;9.150;2023-03-01T15:16:02;16.60;;;6.53;;
773;SDS011;370;48.810;9.150;2023-03-01T15:18:33;11.60;;;4.90;;
773;SDS011;370;48.810;9.150;2023-03-01T15:21:08;17.10;;;6.40;;
773;SDS011;370;48.810;9.150;2023-03-01T15:23:37;16.88;;;6.85;;
773;SDS011;370;48.810;9.150;2023-03-01T15:26:06;17.02;;;7.05;;
773;SDS011;370;48.810;9.150;2023-03-01T15:28:33;12.55;;;5.47;;
773;SDS011;370;48.810;9.150;2023-03-01T15:31:12;19.85;;;7.25;;
773;SDS011;370;48.810;9.150;2023-03-01T15:33:47;17.70;;;6.85;;
773;SDS011;370;48.810;9.150;2023-03-01T15:36:30;12.25;;;5.63;;
773;SDS011;370;48.810;9.150;2023-03-01T15:41:56;10.20;;;4.45;;
773;SDS011;370;48.810;9.150;2023-03-01T15:44:25;18.13;;;5.75;;
773;SDS011;370;48.810;9.150;2023-03-01T15:46:53;21.58;;;7.85;;
773;SDS011;370;48.810;9.150;2023-03-01T15:49:24;9.68;;;4.70;;
773;SDS011;370;48.810;9.150;2023-03-01T15:51:55;21.80;;;5.82;;
773;SDS011;370;48.810;9.150;2023-03-01T15:54:23;16.30;;;6.47;;
773;SDS011;370;48.810;9.150;2023-03-01T15:56:53;18.25;;;5.80;;
773;SDS011;370;48.810;9.150;2023-03-01T15:59:20;15.10;;;6.30;;
773;SDS011;370;48.810;9.150;2023-03-01T16:01:47;19.42;;;6.70;;
773;SDS011;370;48.810;9.150;2023-03-01T16:04:16;12.63;;;5.65;;
773;SDS011;370;48.810;9.150;2023-03-01T16:06:47;13.13;;;6.50;;
773;SDS011;370;48.810;9.150;2023-03-01T16:09:19;18.42;;;5.30;;
773;SDS011;370;48.810;9.150;2023-03-01T16:11:46;13.73;;;5.60;;
773;SDS011;370;48.810;9.150;2023-03-01T16:17:36;13.10;;;5.63;;
773;SDS011;370;48.810;9.150;2023-03-01T16:20:03;16.77;;;5.97;;
773;SDS011;370;48.810;9.150;2023-03-01T16:22:30;20.80;;;6.18;;
773;SDS011;370;48.810;9.150;2023-03-01T16:24:57;13.48;;;5.20;;
773;SDS011;370;48.810;9.150;2023-03-01T16:27:23;13.20;;;4.93;;
773;SDS011;370;48.810;9.150;2023-03-01T16:29:50;13.07;;;5.65;;
773;SDS011;370;48.810;9.150;2023-03-01T16:32:17;18.23;;;6.55;;